createdAt,value
2018-12-01T00:00:04.177Z,42.77
2018-12-01T00:02:31.654Z,41.33
2018-12-01T00:04:59.185Z,42.67
2018-12-01T00:07:26.637Z,39.23
2018-12-01T00:09:54.070Z,37.53
2018-12-01T00:12:21.561Z,37.93
2018-12-01T00:14:48.997Z,36.13
2018-12-01T00:17:16.531Z,44.57
2018-12-01T00:19:44.109Z,46.53
2018-12-01T00:22:11.572Z,38.87
2018-12-01T00:24:39.121Z,40.40
2018-12-01T00:27:06.574Z,42.00
2018-12-01T00:29:34.104Z,48.23
2018-12-01T00:32:01.657Z,37.37
2018-12-01T00:34:29.142Z,45.27
2018-12-01T00:36:57.068Z,45.00
2018-12-01T00:39:24.557Z,38.93
2018-12-01T00:41:52.018Z,60.67
2018-12-01T00:44:19.575Z,43.07
2018-12-01T00:46:47.065Z,41.00
2018-12-01T00:49:14.506Z,37.47
2018-12-01T00:51:41.958Z,33.03
2018-12-01T00:54:09.683Z,32.50
2018-12-01T00:56:37.248Z,35.43
2018-12-01T00:59:05.045Z,34.13
2018-12-01T01:01:32.493Z,32.53
2018-12-01T01:03:59.942Z,29.00
2018-12-01T01:06:27.409Z,38.70
2018-12-01T01:08:54.888Z,34.43
2018-12-01T01:11:22.399Z,31.33
2018-12-01T01:13:49.902Z,30.97
2018-12-01T01:16:17.401Z,27.43
2018-12-01T01:18:44.872Z,35.07
2018-12-01T01:21:12.344Z,32.53
2018-12-01T01:23:39.862Z,28.97
2018-12-01T01:26:07.373Z,30.47
2018-12-01T01:28:34.869Z,29.37
2018-12-01T01:31:02.345Z,30.93
2018-12-01T01:33:30.052Z,35.33
2018-12-01T01:35:57.664Z,30.00
2018-12-01T01:38:25.194Z,31.73
2018-12-01T01:40:58.250Z,28.43
2018-12-01T01:43:25.773Z,29.07
2018-12-01T01:45:53.265Z,29.60
2018-12-01T01:48:20.730Z,31.83
2018-12-01T01:50:48.259Z,26.87
2018-12-01T01:53:15.706Z,29.60
2018-12-01T01:55:43.278Z,26.13
2018-12-01T01:58:10.782Z,28.47
2018-12-01T02:00:38.321Z,24.63
2018-12-01T02:03:05.849Z,28.03
2018-12-01T02:05:33.310Z,27.07
2018-12-01T02:08:00.771Z,25.50
2018-12-01T02:10:28.227Z,24.53
2018-12-01T02:12:55.733Z,23.83
2018-12-01T02:15:23.197Z,27.93
2018-12-01T02:17:50.687Z,24.20
2018-12-01T02:20:18.211Z,27.70
2018-12-01T02:22:45.759Z,25.43
2018-12-01T02:25:14.277Z,25.37
2018-12-01T02:27:41.723Z,21.23
2018-12-01T02:30:11.210Z,22.00
2018-12-01T02:32:38.699Z,26.27
2018-12-01T02:35:09.556Z,27.00
2018-12-01T02:37:37.320Z,27.30
2018-12-01T02:40:07.746Z,25.80
2018-12-01T02:42:35.239Z,25.77
2018-12-01T02:45:15.105Z,28.77
2018-12-01T02:47:42.526Z,22.97
2018-12-01T02:50:13.561Z,22.70
2018-12-01T02:52:41.287Z,23.30
2018-12-01T02:55:09.582Z,20.77
2018-12-01T02:57:38.125Z,22.37
2018-12-01T03:00:13.555Z,29.20
2018-12-01T03:02:41.238Z,23.77
2018-12-01T03:05:09.874Z,23.03
2018-12-01T03:07:37.713Z,26.37
2018-12-01T03:10:10.521Z,28.23
2018-12-01T03:12:38.033Z,23.70
2018-12-01T03:15:08.165Z,28.03
2018-12-01T03:17:35.690Z,22.43
2018-12-01T03:20:04.311Z,25.67
2018-12-01T03:22:31.753Z,24.60
2018-12-01T03:24:59.277Z,27.23
2018-12-01T03:27:31.298Z,26.93
2018-12-01T03:29:58.777Z,32.60
2018-12-01T03:32:26.243Z,30.10
2018-12-01T03:34:53.740Z,26.60
2018-12-01T03:37:21.234Z,36.83
2018-12-01T03:39:48.724Z,36.53
2018-12-01T03:42:16.224Z,26.20
2018-12-01T03:44:43.765Z,31.83
2018-12-01T03:47:11.742Z,35.33
2018-12-01T03:49:40.889Z,33.87
2018-12-01T03:52:08.848Z,33.67
2018-12-01T03:54:36.822Z,27.77
2018-12-01T03:57:04.929Z,27.37
2018-12-01T03:59:32.916Z,26.87
2018-12-01T04:02:00.429Z,26.67
2018-12-01T04:04:27.940Z,31.93
2018-12-01T04:06:55.493Z,31.07
2018-12-01T04:09:24.037Z,30.30
2018-12-01T04:11:51.708Z,30.37
2018-12-01T04:14:19.254Z,29.87
2018-12-01T04:16:46.745Z,29.57
2018-12-01T04:19:14.181Z,41.50
2018-12-01T04:21:41.631Z,28.20
2018-12-01T04:24:09.087Z,29.77
2018-12-01T04:26:36.541Z,28.17
2018-12-01T04:29:04.110Z,35.33
2018-12-01T04:31:31.581Z,32.47
2018-12-01T04:33:59.094Z,28.30
2018-12-01T04:36:26.562Z,28.50
2018-12-01T04:38:54.166Z,27.87
2018-12-01T04:41:21.717Z,27.90
2018-12-01T04:43:49.220Z,27.10
2018-12-01T04:46:16.709Z,31.47
2018-12-01T04:48:44.182Z,31.80
2018-12-01T04:51:11.673Z,36.17
2018-12-01T04:53:39.157Z,38.37
2018-12-01T04:56:06.709Z,37.57
2018-12-01T04:58:34.146Z,40.83
2018-12-01T05:01:01.602Z,39.27
2018-12-01T05:03:29.134Z,39.87
2018-12-01T05:05:56.658Z,30.50
2018-12-01T05:08:24.153Z,31.80
2018-12-01T05:10:51.620Z,29.57
2018-12-01T05:13:19.077Z,26.03
2018-12-01T05:15:46.553Z,23.73
2018-12-01T05:18:14.033Z,24.83
2018-12-01T05:20:41.450Z,26.03
2018-12-01T05:23:09.075Z,22.10
2018-12-01T05:25:36.585Z,21.13
2018-12-01T05:28:04.033Z,23.00
2018-12-01T05:30:31.491Z,20.23
2018-12-01T05:32:58.960Z,24.33
2018-12-01T05:35:26.418Z,19.23
2018-12-01T05:37:53.922Z,20.87
2018-12-01T05:40:21.608Z,22.80
2018-12-01T05:42:49.061Z,22.23
2018-12-01T05:45:18.336Z,21.10
2018-12-01T05:47:45.893Z,20.63
2018-12-01T05:50:14.199Z,19.47
2018-12-01T05:52:41.645Z,19.07
2018-12-01T05:55:11.000Z,19.97
2018-12-01T05:57:38.552Z,17.13
2018-12-01T06:00:11.351Z,17.17
2018-12-01T06:02:38.821Z,16.43
2018-12-01T06:05:06.953Z,15.43
2018-12-01T06:07:34.401Z,15.27
2018-12-01T06:10:01.885Z,14.90
2018-12-01T06:12:29.325Z,15.43
2018-12-01T06:14:56.791Z,17.60
2018-12-01T06:17:24.269Z,16.33
2018-12-01T06:19:51.734Z,17.60
2018-12-01T06:22:19.215Z,16.30
2018-12-01T06:24:46.634Z,18.63
2018-12-01T06:27:14.073Z,19.40
2018-12-01T06:29:41.559Z,17.77
2018-12-01T06:32:09.005Z,19.93
2018-12-01T06:34:36.432Z,20.47
2018-12-01T06:37:03.921Z,20.50
2018-12-01T06:39:31.349Z,20.73
2018-12-01T06:41:58.881Z,21.33
2018-12-01T06:44:26.397Z,30.40
2018-12-01T06:46:53.862Z,25.53
2018-12-01T06:49:21.325Z,25.17
2018-12-01T06:51:48.737Z,23.73
2018-12-01T06:54:16.206Z,24.67
2018-12-01T06:56:43.685Z,26.07
2018-12-01T06:59:11.285Z,33.30
2018-12-01T07:01:38.828Z,30.23
2018-12-01T07:04:06.269Z,26.17
2018-12-01T07:06:33.876Z,28.40
2018-12-01T07:09:01.546Z,29.90
2018-12-01T07:11:29.002Z,27.87
2018-12-01T07:13:56.523Z,28.87
2018-12-01T07:16:24.672Z,28.83
2018-12-01T07:19:15.321Z,29.23
2018-12-01T07:21:42.934Z,30.10
2018-12-01T07:24:10.550Z,32.60
2018-12-01T07:26:38.163Z,34.77
2018-12-01T07:29:06.501Z,36.93
2018-12-01T07:31:34.202Z,36.13
2018-12-01T07:34:01.741Z,38.40
2018-12-01T07:36:29.262Z,36.07
2018-12-01T07:38:56.773Z,40.47
2018-12-01T07:41:25.150Z,36.20
2018-12-01T07:43:52.651Z,39.57
2018-12-01T07:46:20.254Z,38.03
2018-12-01T07:48:47.765Z,35.77
2018-12-01T07:51:15.246Z,39.33
2018-12-01T07:53:42.713Z,39.17
2018-12-01T07:56:10.297Z,38.53
2018-12-01T07:58:38.001Z,37.93
2018-12-01T08:01:05.565Z,34.37
2018-12-01T08:03:32.989Z,40.97
2018-12-01T08:06:00.554Z,39.10
2018-12-01T08:08:27.997Z,35.47
2018-12-01T08:10:55.498Z,41.37
2018-12-01T08:13:23.049Z,35.77
2018-12-01T08:15:50.497Z,36.73
2018-12-01T08:18:17.925Z,38.40
2018-12-01T08:20:45.454Z,40.57
2018-12-01T08:23:12.938Z,42.37
2018-12-01T08:25:40.382Z,43.13
2018-12-01T08:28:09.280Z,38.00
2018-12-01T08:30:36.922Z,40.87
2018-12-01T08:33:04.686Z,40.97
2018-12-01T08:35:32.186Z,38.70
2018-12-01T08:37:59.655Z,40.40
2018-12-01T08:40:28.333Z,40.73
2018-12-01T08:42:55.909Z,39.63
2018-12-01T08:45:23.633Z,39.87
2018-12-01T08:47:52.301Z,40.43
2018-12-01T08:50:21.636Z,39.73
2018-12-01T08:52:49.335Z,38.20
2018-12-01T08:55:17.846Z,40.07
2018-12-01T08:57:45.364Z,38.50
2018-12-01T09:00:16.396Z,34.87
2018-12-01T09:02:45.427Z,35.43
2018-12-01T09:05:14.645Z,34.10
2018-12-01T09:07:42.257Z,32.20
2018-12-01T09:10:09.986Z,34.30
2018-12-01T09:12:37.471Z,33.57
2018-12-01T09:15:09.140Z,30.10
2018-12-01T09:17:37.274Z,33.07
2018-12-01T09:20:07.076Z,29.33
2018-12-01T09:22:34.501Z,28.83
2018-12-01T09:25:02.031Z,28.70
2018-12-01T09:27:29.458Z,27.47
2018-12-01T09:29:56.971Z,27.97
2018-12-01T09:32:24.436Z,29.13
2018-12-01T09:34:51.961Z,26.17
2018-12-01T09:37:19.447Z,28.57
2018-12-01T09:39:46.955Z,28.67
2018-12-01T09:42:14.413Z,25.83
2018-12-01T09:44:42.033Z,26.77
2018-12-01T09:47:10.606Z,26.07
2018-12-01T09:49:42.147Z,29.43
2018-12-01T09:52:09.753Z,28.30
2018-12-01T09:54:37.293Z,29.63
2018-12-01T09:57:04.889Z,53.60
2018-12-01T09:59:33.801Z,29.50
2018-12-01T10:02:01.583Z,26.83
2018-12-01T10:04:29.199Z,25.43
2018-12-01T10:06:56.751Z,24.27
2018-12-01T10:09:24.338Z,24.87
2018-12-01T10:11:52.083Z,25.43
2018-12-01T10:14:19.583Z,26.93
2018-12-01T10:16:47.137Z,25.07
2018-12-01T10:19:15.059Z,23.03
2018-12-01T10:21:42.632Z,24.17
2018-12-01T10:24:10.203Z,23.13
2018-12-01T10:26:37.657Z,23.87
2018-12-01T10:29:05.247Z,23.33
2018-12-01T10:31:32.739Z,22.07
2018-12-01T10:34:00.259Z,22.30
2018-12-01T10:36:28.988Z,22.10
2018-12-01T10:38:55.656Z,21.53
2018-12-01T10:41:23.122Z,21.47
2018-12-01T10:43:50.533Z,22.53
2018-12-01T10:46:17.969Z,24.10
2018-12-01T10:48:45.405Z,26.80
2018-12-01T10:51:12.857Z,22.20
2018-12-01T10:53:40.500Z,22.60
2018-12-01T10:56:08.086Z,19.03
2018-12-01T10:58:35.603Z,21.63
2018-12-01T11:01:08.951Z,21.30
2018-12-01T11:03:40.076Z,24.03
2018-12-01T11:06:13.354Z,22.67
2018-12-01T11:08:40.999Z,20.57
2018-12-01T11:11:08.565Z,18.90
2018-12-01T11:13:36.188Z,18.17
2018-12-01T11:16:04.629Z,17.40
2018-12-01T11:18:32.185Z,13.47
2018-12-01T11:20:59.750Z,13.47
2018-12-01T11:23:27.349Z,11.90
2018-12-01T11:25:54.844Z,11.60
2018-12-01T11:28:22.429Z,11.97
2018-12-01T11:30:50.157Z,10.80
2018-12-01T11:33:17.760Z,9.53
2018-12-01T11:35:45.865Z,9.93
2018-12-01T11:38:13.362Z,10.63
2018-12-01T11:40:40.925Z,11.20
2018-12-01T11:43:09.013Z,10.60
2018-12-01T11:45:36.670Z,10.87
2018-12-01T11:48:04.361Z,11.00
2018-12-01T11:50:31.974Z,9.77
2018-12-01T11:52:59.608Z,11.30
2018-12-01T11:55:27.082Z,10.87
2018-12-01T11:57:54.528Z,10.70
2018-12-01T12:00:23.413Z,11.33
2018-12-01T12:02:50.922Z,13.37
2018-12-01T12:05:18.417Z,12.33
2018-12-01T12:07:57.208Z,12.23
2018-12-01T12:10:24.867Z,11.43
2018-12-01T12:12:52.489Z,10.23
2018-12-01T12:15:20.984Z,9.63
2018-12-01T12:17:56.002Z,11.43
2018-12-01T12:20:23.536Z,11.20
2018-12-01T12:22:50.979Z,14.03
2018-12-01T12:25:18.461Z,12.50
2018-12-01T12:27:46.195Z,10.73
2018-12-01T12:30:14.959Z,10.20
2018-12-01T12:32:42.969Z,9.93
2018-12-01T12:35:11.683Z,8.37
2018-12-01T12:37:39.138Z,8.67
2018-12-01T12:40:12.986Z,9.60
2018-12-01T12:42:41.364Z,9.37
2018-12-01T12:45:10.167Z,15.83
2018-12-01T12:47:37.707Z,9.83
2018-12-01T12:50:08.582Z,9.30
2018-12-01T12:52:36.029Z,9.90
2018-12-01T12:55:04.294Z,10.07
2018-12-01T12:57:31.773Z,10.53
2018-12-01T12:59:59.301Z,11.73
2018-12-01T13:02:26.869Z,10.70
2018-12-01T13:04:54.290Z,10.23
2018-12-01T13:07:21.705Z,9.60
2018-12-01T13:09:49.130Z,9.87
2018-12-01T13:12:16.545Z,9.07
2018-12-01T13:14:44.098Z,8.63
2018-12-01T13:17:11.598Z,7.93
2018-12-01T13:19:39.046Z,8.03
2018-12-01T13:22:08.688Z,7.67
2018-12-01T13:24:36.133Z,6.80
2018-12-01T13:27:03.735Z,6.33
2018-12-01T13:29:31.365Z,5.63
2018-12-01T13:32:01.004Z,4.20
2018-12-01T13:34:28.718Z,4.17
2018-12-01T13:36:56.301Z,5.20
2018-12-01T13:39:23.763Z,3.63
2018-12-01T13:41:51.219Z,3.67
2018-12-01T13:44:18.694Z,2.77
2018-12-01T13:46:46.181Z,3.57
2018-12-01T13:49:13.712Z,3.37
2018-12-01T13:51:41.152Z,3.20
2018-12-01T13:54:08.579Z,2.83
2018-12-01T13:56:36.106Z,5.03
2018-12-01T13:59:03.587Z,4.00
2018-12-01T14:01:31.058Z,4.00
2018-12-01T14:03:58.973Z,2.67
2018-12-01T14:06:26.504Z,3.83
2018-12-01T14:08:54.122Z,4.53
2018-12-01T14:11:21.658Z,3.73
2018-12-01T14:13:49.125Z,3.77
2018-12-01T14:16:16.622Z,4.80
2018-12-01T14:18:44.146Z,4.90
2018-12-01T14:21:11.916Z,4.20
2018-12-01T14:23:39.374Z,4.80
2018-12-01T14:26:06.898Z,4.23
2018-12-01T14:28:34.479Z,5.47
2018-12-01T14:31:02.001Z,5.40
2018-12-01T14:33:29.550Z,4.97
2018-12-01T14:35:57.619Z,5.50
2018-12-01T14:38:25.050Z,6.80
2018-12-01T14:40:52.475Z,7.80
2018-12-01T14:43:20.083Z,6.73
2018-12-01T14:45:48.772Z,6.77
2018-12-01T14:48:16.734Z,6.53
2018-12-01T14:50:48.496Z,8.10
2018-12-01T14:53:14.456Z,7.40
2018-12-01T14:55:42.031Z,12.57
2018-12-01T14:58:09.696Z,8.90
2018-12-01T15:00:37.284Z,11.70
2018-12-01T15:03:05.981Z,9.67
2018-12-01T15:05:33.570Z,13.43
2018-12-01T15:08:01.014Z,20.70
2018-12-01T15:10:28.473Z,12.40
2018-12-01T15:12:56.072Z,9.50
2018-12-01T15:15:29.365Z,9.37
2018-12-01T15:17:56.910Z,8.03
2018-12-01T15:20:25.471Z,7.43
2018-12-01T15:22:54.354Z,7.17
2018-12-01T15:25:25.337Z,7.60
2018-12-01T15:27:52.867Z,6.27
2018-12-01T15:30:24.201Z,6.13
2018-12-01T15:32:57.194Z,6.87
2018-12-01T15:35:24.930Z,6.37
2018-12-01T15:37:53.186Z,6.67
2018-12-01T15:40:20.694Z,6.40
2018-12-01T15:42:48.267Z,7.03
2018-12-01T15:45:18.150Z,7.37
2018-12-01T15:47:45.750Z,9.60
2018-12-01T15:50:14.551Z,8.17
2018-12-01T15:52:43.132Z,8.37
2018-12-01T15:55:11.373Z,7.63
2018-12-01T15:57:38.921Z,7.13
2018-12-01T16:00:12.313Z,7.53
2018-12-01T16:02:39.794Z,8.17
2018-12-01T16:05:08.017Z,8.23
2018-12-01T16:07:35.661Z,10.57
2018-12-01T16:10:03.838Z,12.23
2018-12-01T16:12:31.366Z,10.40
2018-12-01T16:14:58.827Z,9.80
2018-12-01T16:17:26.347Z,9.40
2018-12-01T16:19:53.919Z,13.97
2018-12-01T16:22:21.410Z,13.87
2018-12-01T16:24:48.894Z,15.27
2018-12-01T16:27:17.041Z,10.70
2018-12-01T16:29:44.526Z,8.93
2018-12-01T16:32:11.958Z,7.83
2018-12-01T16:34:39.460Z,7.70
2018-12-01T16:37:07.057Z,8.07
2018-12-01T16:39:34.578Z,9.07
2018-12-01T16:42:02.142Z,7.73
2018-12-01T16:44:29.774Z,8.63
2018-12-01T16:46:57.376Z,7.83
2018-12-01T16:49:24.902Z,9.57
2018-12-01T16:51:52.377Z,9.17
2018-12-01T16:54:20.030Z,9.70
2018-12-01T16:56:47.608Z,9.70
2018-12-01T16:59:15.125Z,9.40
2018-12-01T17:01:42.719Z,11.03
2018-12-01T17:04:10.184Z,10.00
2018-12-01T17:06:37.677Z,12.43
2018-12-01T17:09:06.994Z,14.27
2018-12-01T17:11:34.536Z,13.77
2018-12-01T17:14:02.153Z,10.93
2018-12-01T17:16:29.794Z,11.03
2018-12-01T17:18:58.176Z,10.27
2018-12-01T17:21:25.757Z,12.03
2018-12-01T17:23:53.287Z,18.33
2018-12-01T17:26:20.777Z,13.23
2018-12-01T17:28:48.261Z,14.00
2018-12-01T17:31:15.707Z,14.37
2018-12-01T17:33:43.347Z,13.43
2018-12-01T17:36:10.827Z,21.27
2018-12-01T17:38:38.333Z,10.30
2018-12-01T17:41:10.925Z,9.80
2018-12-01T17:43:56.183Z,9.30
2018-12-01T17:46:23.703Z,9.87
2018-12-01T17:48:51.134Z,11.47
2018-12-01T17:51:18.776Z,11.50
2018-12-01T17:53:49.090Z,12.00
2018-12-01T17:56:16.570Z,11.03
2018-12-01T17:58:44.027Z,12.07
2018-12-01T18:01:11.526Z,10.90
2018-12-01T18:03:39.004Z,11.67
2018-12-01T18:06:08.669Z,11.23
2018-12-01T18:08:36.209Z,12.43
2018-12-01T18:11:03.848Z,12.97
2018-12-01T18:13:31.378Z,13.73
2018-12-01T18:15:59.959Z,12.83
2018-12-01T18:18:27.684Z,12.87
2018-12-01T18:20:55.250Z,12.10
2018-12-01T18:23:22.802Z,13.40
2018-12-01T18:25:53.050Z,13.73
2018-12-01T18:28:38.225Z,12.97
2018-12-01T18:31:09.159Z,12.23
2018-12-01T18:33:38.273Z,12.30
2018-12-01T18:36:07.327Z,13.03
2018-12-01T18:38:34.918Z,12.13
2018-12-01T18:41:02.436Z,12.77
2018-12-01T18:43:29.874Z,11.80
2018-12-01T18:45:59.361Z,11.57
2018-12-01T18:48:26.834Z,10.97
2018-12-01T18:50:54.346Z,11.07
2018-12-01T18:53:21.780Z,11.30
2018-12-01T18:55:50.954Z,10.00
2018-12-01T18:58:18.770Z,11.10
2018-12-01T19:00:49.382Z,12.83
2018-12-01T19:03:17.669Z,13.10
2018-12-01T19:05:45.329Z,11.50
2018-12-01T19:08:12.787Z,16.50
2018-12-01T19:10:40.292Z,11.03
2018-12-01T19:13:08.848Z,14.27
2018-12-01T19:15:36.537Z,11.60
2018-12-01T19:18:04.418Z,14.13
2018-12-01T19:20:31.853Z,12.57
2018-12-01T19:22:59.395Z,13.70
2018-12-01T19:25:26.841Z,12.50
2018-12-01T19:27:55.085Z,11.03
2018-12-01T19:30:22.647Z,10.37
2018-12-01T19:32:54.563Z,12.07
2018-12-01T19:35:22.030Z,11.93
2018-12-01T19:37:50.933Z,10.47
2018-12-01T19:40:28.759Z,11.57
2018-12-01T19:42:55.807Z,10.90
2018-12-01T19:45:23.372Z,11.90
2018-12-01T19:47:51.362Z,11.80
2018-12-01T19:50:21.101Z,12.33
2018-12-01T19:52:48.730Z,11.07
2018-12-01T19:55:17.086Z,10.87
2018-12-01T19:57:44.596Z,11.67
2018-12-01T20:00:14.359Z,11.33
2018-12-01T20:02:41.937Z,12.27
2018-12-01T20:05:11.021Z,11.30
2018-12-01T20:07:38.554Z,12.13
2018-12-01T20:10:11.246Z,15.33
2018-12-01T20:12:38.768Z,12.53
2018-12-01T20:15:10.979Z,12.13
2018-12-01T20:17:38.475Z,11.00
2018-12-01T20:20:06.022Z,10.67
2018-12-01T20:22:33.847Z,9.77
2018-12-01T20:25:02.443Z,10.63
2018-12-01T20:27:29.934Z,10.93
2018-12-01T20:29:57.546Z,10.53
2018-12-01T20:32:25.004Z,8.50
2018-12-01T20:34:52.627Z,10.07
2018-12-01T20:37:20.265Z,9.23
2018-12-01T20:39:47.806Z,8.67
2018-12-01T20:42:15.338Z,8.77
2018-12-01T20:44:42.827Z,8.00
2018-12-01T20:47:10.347Z,9.30
2018-12-01T20:49:37.821Z,9.00
2018-12-01T20:52:05.638Z,9.27
2018-12-01T20:54:36.098Z,8.97
2018-12-01T20:57:08.865Z,8.47
2018-12-01T20:59:36.418Z,8.80
2018-12-01T21:02:03.890Z,9.50
2018-12-01T21:04:31.372Z,9.03
2018-12-01T21:06:58.865Z,9.53
2018-12-01T21:09:26.345Z,10.53
2018-12-01T21:11:53.922Z,6.57
2018-12-01T21:14:21.420Z,6.60
2018-12-01T21:16:49.012Z,5.90
2018-12-01T21:19:16.471Z,6.90
2018-12-01T21:21:43.984Z,5.57
2018-12-01T21:24:11.550Z,5.50
2018-12-01T21:26:39.033Z,6.63
2018-12-01T21:29:06.734Z,6.27
2018-12-01T21:31:34.294Z,5.07
2018-12-01T21:34:01.814Z,5.70
2018-12-01T21:36:29.354Z,5.10
2018-12-01T21:38:57.129Z,4.83
2018-12-01T21:41:24.670Z,5.00
2018-12-01T21:43:52.143Z,4.33
2018-12-01T21:46:19.889Z,5.33
2018-12-01T21:48:47.483Z,4.77
2018-12-01T21:51:15.027Z,5.50
2018-12-01T21:53:42.611Z,3.47
2018-12-01T21:56:10.140Z,3.60
2018-12-01T21:58:37.617Z,3.67
2018-12-01T22:01:05.794Z,4.07
2018-12-01T22:03:33.348Z,4.27
2018-12-01T22:06:01.946Z,3.67
2018-12-01T22:08:30.406Z,3.73
2018-12-01T22:10:58.938Z,3.50
2018-12-01T22:13:26.563Z,3.07
2018-12-01T22:15:54.307Z,3.20
2018-12-01T22:18:22.558Z,2.67
2018-12-01T22:20:50.366Z,3.37
2018-12-01T22:23:17.835Z,3.43
2018-12-01T22:25:45.442Z,3.13
2018-12-01T22:28:14.237Z,2.70
2018-12-01T22:30:43.652Z,3.33
2018-12-01T22:33:13.793Z,3.70
2018-12-01T22:35:43.048Z,2.50
2018-12-01T22:38:10.591Z,3.73
2018-12-01T22:40:40.426Z,3.03
2018-12-01T22:43:08.025Z,3.13
2018-12-01T22:45:35.524Z,2.77
2018-12-01T22:48:04.599Z,3.80
2018-12-01T22:50:32.225Z,2.77
2018-12-01T22:53:00.618Z,3.47
2018-12-01T22:55:30.767Z,2.47
2018-12-01T22:58:07.924Z,3.53
2018-12-01T23:00:39.615Z,3.03
2018-12-01T23:03:07.725Z,3.43
2018-12-01T23:05:35.663Z,3.83
2018-12-01T23:08:04.792Z,3.80
2018-12-01T23:10:32.266Z,3.33
2018-12-01T23:12:59.860Z,4.23
2018-12-01T23:15:32.425Z,4.20
2018-12-01T23:17:55.689Z,4.03
2018-12-01T23:20:23.156Z,4.23
2018-12-01T23:22:51.179Z,4.27
2018-12-01T23:25:18.718Z,3.87
2018-12-01T23:27:47.012Z,4.27
2018-12-01T23:30:19.409Z,4.13
2018-12-01T23:32:48.757Z,4.00
2018-12-01T23:35:16.332Z,4.00
2018-12-01T23:37:43.829Z,4.10
2018-12-01T23:40:12.194Z,4.37
2018-12-01T23:42:39.844Z,4.10
2018-12-01T23:45:12.546Z,3.57
2018-12-01T23:47:40.218Z,4.00
2018-12-01T23:50:10.795Z,3.83
2018-12-01T23:52:38.288Z,4.27
2018-12-01T23:55:10.237Z,4.40
2018-12-01T23:57:37.737Z,4.23
